ETSI

Ingolstadt Manching Airport

Manching, Germany
METAR ETSI 250434Z 00000KT 6000 VCFG FEW004 SCT090 14/13 Q1019 WHT WHT BECMG BLU+
Observed Flight Rules
May-25 @ 04:34 UTC (43 minutes ago) Marginal Visual Flight Rules
Visibility Clouds Conditions
6,003 meters
  • Few at 400' AGL
  • Scattered at 9,000' AGL
  • Area Fog
Temperatures Readings
Current 14°C / 57°F
Dewpoint 13°C / 55°F
Humidity 94%
Altimeter 30.09" Hg
Pressure 1019 hPa
Elevation 370
METAR ETSI 250434Z 00000KT 6000 VCFG FEW004 SCT090 14/13 Q1019 WHT WHT BECMG BLU+
Observed Flight Rules
May-25 @ 04:34 UTC
(43 minutes ago)
MVFR
Clouds
  • Few at 400' AGL
  • Scattered at 9,000' AGL
Conditions
  • Area Fog
Temperature Dewpoint
14°C / 57°F 13°C / 55°F
Humidity Altimeter Pressure
94% 30.09" Hg 1019 hPa